Terminal Aerodrome Forecast
Issued by NWS

Home | Current Version | Previous Version | Graphics & Text | Print | Product List | Glossary Off
Versions: 1 2 3 4 5 6 7 8 9 10 11 12 13 14 15 16

000
FTUS43 KICT 202300
TAFCNU
TAF
KCNU 202321Z 2100/2124 17008KT P6SM BKN100
     FM210600 20010KT P6SM BKN015
     FM211000 20010KT P6SM OVC008
     FM211600 23010KT P6SM OVC015=

USA.gov is the U.S. government's official web portal to all federal, state and local government web resources and services.